Terminal Aerodrome Forecast
Issued by NWS

Home | Current Version | Previous Version | Text Only | Print | Product List | Glossary On
Versions: 1 2 3 4 5 6 7 8 9 10 11 12 13 14 15 16
000
FTUS45 KPSR 171900 AAA
TAFBLH
TAF AMD
KBLH 171918Z 1719/1818 21008KT 6SM -RA SCT040 BKN080 BKN140
     FM180100 VRB03KT P6SM VCSH SCT060 BKN080 BKN120
     FM180500 26004KT P6SM SCT070 BKN100 BKN200=

USA.gov is the U.S. government's official web portal to all federal, state and local government web resources and services.